sensor_id;sensor_type;location;lat;lon;timestamp;P1;durP1;ratioP1;P2;durP2;ratioP2
3849;SDS011;1940;51.052;13.678;2022-09-28T00:00:57;2.27;;;1.50;;
3849;SDS011;1940;51.052;13.678;2022-09-28T00:03:22;2.23;;;1.60;;
3849;SDS011;1940;51.052;13.678;2022-09-28T00:05:48;4.60;;;1.47;;
3849;SDS011;1940;51.052;13.678;2022-09-28T00:08:13;1.57;;;1.33;;
3849;SDS011;1940;51.052;13.678;2022-09-28T00:10:39;1.90;;;1.50;;
3849;SDS011;1940;51.052;13.678;2022-09-28T00:13:05;2.20;;;1.43;;
3849;SDS011;1940;51.052;13.678;2022-09-28T00:15:32;1.53;;;1.10;;
3849;SDS011;1940;51.052;13.678;2022-09-28T00:17:57;1.90;;;1.30;;
3849;SDS011;1940;51.052;13.678;2022-09-28T00:20:22;1.43;;;1.17;;
3849;SDS011;1940;51.052;13.678;2022-09-28T00:22:48;1.80;;;1.33;;
3849;SDS011;1940;51.052;13.678;2022-09-28T00:25:13;3.13;;;1.20;;
3849;SDS011;1940;51.052;13.678;2022-09-28T00:27:40;1.47;;;1.20;;
3849;SDS011;1940;51.052;13.678;2022-09-28T00:30:06;1.40;;;1.27;;
3849;SDS011;1940;51.052;13.678;2022-09-28T00:32:33;1.50;;;1.30;;
3849;SDS011;1940;51.052;13.678;2022-09-28T00:34:58;1.20;;;1.10;;
3849;SDS011;1940;51.052;13.678;2022-09-28T00:37:24;1.17;;;1.07;;
3849;SDS011;1940;51.052;13.678;2022-09-28T00:39:49;1.63;;;1.30;;
3849;SDS011;1940;51.052;13.678;2022-09-28T00:45:16;1.10;;;1.00;;
3849;SDS011;1940;51.052;13.678;2022-09-28T00:50:26;1.53;;;1.23;;
3849;SDS011;1940;51.052;13.678;2022-09-28T00:52:59;1.10;;;1.00;;
3849;SDS011;1940;51.052;13.678;2022-09-28T00:55:48;1.43;;;1.13;;
3849;SDS011;1940;51.052;13.678;2022-09-28T00:58:26;1.27;;;1.17;;
3849;SDS011;1940;51.052;13.678;2022-09-28T01:00:54;1.10;;;1.00;;
3849;SDS011;1940;51.052;13.678;2022-09-28T01:03:21;1.40;;;1.13;;
3849;SDS011;1940;51.052;13.678;2022-09-28T01:05:49;1.10;;;1.00;;
3849;SDS011;1940;51.052;13.678;2022-09-28T01:08:17;1.40;;;1.03;;
3849;SDS011;1940;51.052;13.678;2022-09-28T01:10:45;1.43;;;1.13;;
3849;SDS011;1940;51.052;13.678;2022-09-28T01:13:12;1.87;;;1.07;;
3849;SDS011;1940;51.052;13.678;2022-09-28T01:15:41;1.23;;;1.00;;
3849;SDS011;1940;51.052;13.678;2022-09-28T01:21:18;1.40;;;1.10;;
3849;SDS011;1940;51.052;13.678;2022-09-28T01:23:53;1.30;;;1.10;;
3849;SDS011;1940;51.052;13.678;2022-09-28T01:30:08;1.20;;;1.10;;
3849;SDS011;1940;51.052;13.678;2022-09-28T01:32:41;1.30;;;1.20;;
3849;SDS011;1940;51.052;13.678;2022-09-28T01:35:36;1.17;;;1.07;;
3849;SDS011;1940;51.052;13.678;2022-09-28T01:38:25;1.43;;;1.03;;
3849;SDS011;1940;51.052;13.678;2022-09-28T01:44:19;1.17;;;1.07;;
3849;SDS011;1940;51.052;13.678;2022-09-28T01:46:47;1.57;;;1.27;;
3849;SDS011;1940;51.052;13.678;2022-09-28T01:49:16;3.23;;;1.53;;
3849;SDS011;1940;51.052;13.678;2022-09-28T01:51:49;1.47;;;1.30;;
3849;SDS011;1940;51.052;13.678;2022-09-28T01:54:37;2.43;;;1.60;;
3849;SDS011;1940;51.052;13.678;2022-09-28T01:57:10;1.87;;;1.30;;
3849;SDS011;1940;51.052;13.678;2022-09-28T02:00:04;1.97;;;1.20;;
3849;SDS011;1940;51.052;13.678;2022-09-28T02:02:32;1.90;;;1.23;;
3849;SDS011;1940;51.052;13.678;2022-09-28T02:07:47;1.40;;;1.20;;
3849;SDS011;1940;51.052;13.678;2022-09-28T02:10:20;1.43;;;1.30;;
3849;SDS011;1940;51.052;13.678;2022-09-28T02:13:03;1.40;;;1.30;;
3849;SDS011;1940;51.052;13.678;2022-09-28T02:15:36;1.50;;;1.30;;
3849;SDS011;1940;51.052;13.678;2022-09-28T02:18:14;2.00;;;1.30;;
3849;SDS011;1940;51.052;13.678;2022-09-28T02:20:40;1.50;;;1.30;;
3849;SDS011;1940;51.052;13.678;2022-09-28T02:23:12;10.73;;;1.30;;
3849;SDS011;1940;51.052;13.678;2022-09-28T02:25:39;1.30;;;1.10;;
3849;SDS011;1940;51.052;13.678;2022-09-28T02:28:10;4.73;;;1.90;;
3849;SDS011;1940;51.052;13.678;2022-09-28T02:30:40;2.23;;;1.40;;
3849;SDS011;1940;51.052;13.678;2022-09-28T02:36:29;1.20;;;1.10;;
3849;SDS011;1940;51.052;13.678;2022-09-28T02:38:55;4.80;;;1.50;;
3849;SDS011;1940;51.052;13.678;2022-09-28T02:41:45;1.50;;;1.30;;
3849;SDS011;1940;51.052;13.678;2022-09-28T02:47:43;1.67;;;1.47;;
3849;SDS011;1940;51.052;13.678;2022-09-28T02:50:28;1.87;;;1.63;;
3849;SDS011;1940;51.052;13.678;2022-09-28T02:59:11;2.70;;;1.97;;
3849;SDS011;1940;51.052;13.678;2022-09-28T03:01:59;2.17;;;1.80;;
3849;SDS011;1940;51.052;13.678;2022-09-28T03:07:17;2.07;;;1.50;;
3849;SDS011;1940;51.052;13.678;2022-09-28T03:09:59;3.03;;;1.70;;
3849;SDS011;1940;51.052;13.678;2022-09-28T03:12:29;3.40;;;1.80;;
3849;SDS011;1940;51.052;13.678;2022-09-28T03:15:06;2.70;;;1.80;;
3849;SDS011;1940;51.052;13.678;2022-09-28T03:17:37;1.70;;;1.40;;
3849;SDS011;1940;51.052;13.678;2022-09-28T03:20:03;1.83;;;1.47;;
3849;SDS011;1940;51.052;13.678;2022-09-28T03:22:29;3.13;;;1.90;;
3849;SDS011;1940;51.052;13.678;2022-09-28T03:24:55;1.70;;;1.60;;
3849;SDS011;1940;51.052;13.678;2022-09-28T03:27:20;2.43;;;1.67;;
3849;SDS011;1940;51.052;13.678;2022-09-28T03:29:46;2.10;;;1.70;;
3849;SDS011;1940;51.052;13.678;2022-09-28T03:32:12;2.70;;;1.90;;
3849;SDS011;1940;51.052;13.678;2022-09-28T03:34:37;3.03;;;1.93;;
3849;SDS011;1940;51.052;13.678;2022-09-28T03:37:03;6.70;;;2.70;;
3849;SDS011;1940;51.052;13.678;2022-09-28T03:39:28;5.07;;;1.90;;
3849;SDS011;1940;51.052;13.678;2022-09-28T03:41:54;4.13;;;2.30;;
3849;SDS011;1940;51.052;13.678;2022-09-28T03:44:20;4.00;;;2.43;;
3849;SDS011;1940;51.052;13.678;2022-09-28T03:46:45;4.43;;;2.40;;
3849;SDS011;1940;51.052;13.678;2022-09-28T03:49:11;12.13;;;3.20;;
3849;SDS011;1940;51.052;13.678;2022-09-28T03:51:36;7.70;;;3.10;;
3849;SDS011;1940;51.052;13.678;2022-09-28T03:54:02;5.00;;;3.00;;
3849;SDS011;1940;51.052;13.678;2022-09-28T03:56:28;5.20;;;3.03;;
3849;SDS011;1940;51.052;13.678;2022-09-28T03:58:54;4.60;;;2.90;;
3849;SDS011;1940;51.052;13.678;2022-09-28T04:01:19;5.00;;;2.90;;
3849;SDS011;1940;51.052;13.678;2022-09-28T04:03:45;4.30;;;2.87;;
3849;SDS011;1940;51.052;13.678;2022-09-28T04:06:11;7.10;;;2.27;;
3849;SDS011;1940;51.052;13.678;2022-09-28T04:08:37;4.40;;;2.93;;
3849;SDS011;1940;51.052;13.678;2022-09-28T04:11:03;3.40;;;2.37;;
3849;SDS011;1940;51.052;13.678;2022-09-28T04:13:29;3.70;;;2.60;;
3849;SDS011;1940;51.052;13.678;2022-09-28T04:15:55;4.43;;;2.50;;
3849;SDS011;1940;51.052;13.678;2022-09-28T04:18:23;3.97;;;2.80;;
3849;SDS011;1940;51.052;13.678;2022-09-28T04:20:58;4.50;;;2.30;;
3849;SDS011;1940;51.052;13.678;2022-09-28T04:23:27;4.63;;;2.67;;
3849;SDS011;1940;51.052;13.678;2022-09-28T04:25:53;3.20;;;2.47;;
3849;SDS011;1940;51.052;13.678;2022-09-28T04:28:18;3.67;;;2.47;;
3849;SDS011;1940;51.052;13.678;2022-09-28T04:31:02;5.57;;;2.60;;
3849;SDS011;1940;51.052;13.678;2022-09-28T04:33:32;5.20;;;2.77;;
3849;SDS011;1940;51.052;13.678;2022-09-28T04:35:57;3.40;;;2.33;;
3849;SDS011;1940;51.052;13.678;2022-09-28T04:38:24;3.40;;;2.37;;
3849;SDS011;1940;51.052;13.678;2022-09-28T04:40:49;3.30;;;2.50;;
3849;SDS011;1940;51.052;13.678;2022-09-28T04:43:15;4.30;;;2.47;;
3849;SDS011;1940;51.052;13.678;2022-09-28T04:45:40;5.93;;;2.87;;
3849;SDS011;1940;51.052;13.678;2022-09-28T04:48:06;6.13;;;2.37;;
3849;SDS011;1940;51.052;13.678;2022-09-28T04:50:32;4.70;;;3.00;;
3849;SDS011;1940;51.052;13.678;2022-09-28T04:52:59;3.20;;;2.43;;
3849;SDS011;1940;51.052;13.678;2022-09-28T04:55:25;2.80;;;1.90;;
3849;SDS011;1940;51.052;13.678;2022-09-28T04:57:52;3.17;;;2.17;;
3849;SDS011;1940;51.052;13.678;2022-09-28T05:00:18;5.10;;;2.60;;
3849;SDS011;1940;51.052;13.678;2022-09-28T05:02:44;2.77;;;2.07;;
3849;SDS011;1940;51.052;13.678;2022-09-28T05:05:09;6.93;;;3.23;;
3849;SDS011;1940;51.052;13.678;2022-09-28T05:07:35;3.40;;;2.00;;
3849;SDS011;1940;51.052;13.678;2022-09-28T05:10:00;3.60;;;2.47;;
3849;SDS011;1940;51.052;13.678;2022-09-28T05:12:26;3.97;;;2.47;;
3849;SDS011;1940;51.052;13.678;2022-09-28T05:14:51;3.70;;;1.90;;
3849;SDS011;1940;51.052;13.678;2022-09-28T05:17:17;4.07;;;2.40;;
3849;SDS011;1940;51.052;13.678;2022-09-28T05:19:42;3.63;;;2.50;;
3849;SDS011;1940;51.052;13.678;2022-09-28T05:22:07;2.70;;;2.07;;
3849;SDS011;1940;51.052;13.678;2022-09-28T05:24:38;5.47;;;2.47;;
3849;SDS011;1940;51.052;13.678;2022-09-28T05:27:04;5.00;;;2.60;;
3849;SDS011;1940;51.052;13.678;2022-09-28T05:29:29;5.63;;;2.10;;
3849;SDS011;1940;51.052;13.678;2022-09-28T05:31:55;2.70;;;2.30;;
3849;SDS011;1940;51.052;13.678;2022-09-28T05:34:20;3.20;;;2.23;;
3849;SDS011;1940;51.052;13.678;2022-09-28T05:36:46;3.13;;;2.20;;
3849;SDS011;1940;51.052;13.678;2022-09-28T05:39:11;3.63;;;2.40;;
3849;SDS011;1940;51.052;13.678;2022-09-28T05:41:37;8.77;;;4.10;;
3849;SDS011;1940;51.052;13.678;2022-09-28T05:44:02;8.60;;;3.27;;
3849;SDS011;1940;51.052;13.678;2022-09-28T05:46:33;3.93;;;2.40;;
3849;SDS011;1940;51.052;13.678;2022-09-28T05:48:58;3.80;;;2.17;;
3849;SDS011;1940;51.052;13.678;2022-09-28T05:51:24;3.50;;;2.33;;
3849;SDS011;1940;51.052;13.678;2022-09-28T05:53:49;3.30;;;2.10;;
3849;SDS011;1940;51.052;13.678;2022-09-28T05:56:19;3.63;;;2.30;;
3849;SDS011;1940;51.052;13.678;2022-09-28T05:58:44;16.23;;;2.53;;
3849;SDS011;1940;51.052;13.678;2022-09-28T06:01:10;3.23;;;2.20;;
3849;SDS011;1940;51.052;13.678;2022-09-28T06:03:35;4.33;;;2.27;;
3849;SDS011;1940;51.052;13.678;2022-09-28T06:06:01;3.90;;;2.20;;
3849;SDS011;1940;51.052;13.678;2022-09-28T06:08:27;4.80;;;2.20;;
3849;SDS011;1940;51.052;13.678;2022-09-28T06:10:52;3.97;;;2.63;;
3849;SDS011;1940;51.052;13.678;2022-09-28T06:13:18;3.60;;;2.20;;
3849;SDS011;1940;51.052;13.678;2022-09-28T06:15:43;7.70;;;2.60;;
3849;SDS011;1940;51.052;13.678;2022-09-28T06:18:11;4.10;;;2.70;;
3849;SDS011;1940;51.052;13.678;2022-09-28T06:20:40;3.27;;;2.20;;
3849;SDS011;1940;51.052;13.678;2022-09-28T06:23:07;7.63;;;2.67;;
3849;SDS011;1940;51.052;13.678;2022-09-28T06:25:33;5.80;;;2.93;;
3849;SDS011;1940;51.052;13.678;2022-09-28T06:28:00;3.90;;;2.70;;
3849;SDS011;1940;51.052;13.678;2022-09-28T06:30:28;4.80;;;2.60;;
3849;SDS011;1940;51.052;13.678;2022-09-28T06:32:55;4.03;;;2.87;;
3849;SDS011;1940;51.052;13.678;2022-09-28T06:35:23;6.97;;;3.07;;
3849;SDS011;1940;51.052;13.678;2022-09-28T06:37:50;6.63;;;3.73;;
3849;SDS011;1940;51.052;13.678;2022-09-28T06:40:16;9.10;;;3.83;;
3849;SDS011;1940;51.052;13.678;2022-09-28T06:42:43;10.70;;;3.50;;
3849;SDS011;1940;51.052;13.678;2022-09-28T06:45:18;6.67;;;4.27;;
3849;SDS011;1940;51.052;13.678;2022-09-28T06:47:45;9.70;;;4.63;;
3849;SDS011;1940;51.052;13.678;2022-09-28T06:50:16;8.43;;;5.17;;
3849;SDS011;1940;51.052;13.678;2022-09-28T06:52:41;10.13;;;4.83;;
3849;SDS011;1940;51.052;13.678;2022-09-28T06:55:07;7.97;;;5.20;;
3849;SDS011;1940;51.052;13.678;2022-09-28T06:57:32;8.40;;;4.80;;
3849;SDS011;1940;51.052;13.678;2022-09-28T06:59:57;12.83;;;5.27;;
3849;SDS011;1940;51.052;13.678;2022-09-28T07:02:23;12.10;;;5.80;;
3849;SDS011;1940;51.052;13.678;2022-09-28T07:04:48;10.43;;;5.33;;
3849;SDS011;1940;51.052;13.678;2022-09-28T07:07:14;9.83;;;5.53;;
3849;SDS011;1940;51.052;13.678;2022-09-28T07:09:39;12.40;;;5.40;;
3849;SDS011;1940;51.052;13.678;2022-09-28T07:12:05;9.87;;;4.63;;
3849;SDS011;1940;51.052;13.678;2022-09-28T07:14:34;9.00;;;5.23;;
3849;SDS011;1940;51.052;13.678;2022-09-28T07:16:59;9.80;;;5.80;;
3849;SDS011;1940;51.052;13.678;2022-09-28T07:19:26;10.07;;;5.30;;
3849;SDS011;1940;51.052;13.678;2022-09-28T07:21:51;12.07;;;6.57;;
3849;SDS011;1940;51.052;13.678;2022-09-28T07:24:17;9.80;;;5.70;;
3849;SDS011;1940;51.052;13.678;2022-09-28T07:26:43;14.63;;;6.70;;
3849;SDS011;1940;51.052;13.678;2022-09-28T07:29:09;10.87;;;5.77;;
3849;SDS011;1940;51.052;13.678;2022-09-28T07:31:35;9.10;;;5.47;;
3849;SDS011;1940;51.052;13.678;2022-09-28T07:34:01;10.17;;;6.30;;
3849;SDS011;1940;51.052;13.678;2022-09-28T07:36:27;11.03;;;6.30;;
3849;SDS011;1940;51.052;13.678;2022-09-28T07:38:54;9.80;;;5.67;;
3849;SDS011;1940;51.052;13.678;2022-09-28T07:41:19;10.67;;;6.63;;
3849;SDS011;1940;51.052;13.678;2022-09-28T07:43:56;12.50;;;6.33;;
3849;SDS011;1940;51.052;13.678;2022-09-28T07:46:36;10.93;;;6.10;;
3849;SDS011;1940;51.052;13.678;2022-09-28T07:49:02;12.20;;;6.60;;
3849;SDS011;1940;51.052;13.678;2022-09-28T07:51:30;14.70;;;7.53;;
3849;SDS011;1940;51.052;13.678;2022-09-28T07:53:59;14.47;;;6.10;;
3849;SDS011;1940;51.052;13.678;2022-09-28T07:56:25;12.40;;;7.00;;
3849;SDS011;1940;51.052;13.678;2022-09-28T07:58:50;12.00;;;6.27;;
3849;SDS011;1940;51.052;13.678;2022-09-28T08:01:16;17.43;;;7.47;;
3849;SDS011;1940;51.052;13.678;2022-09-28T08:03:43;13.90;;;7.23;;
3849;SDS011;1940;51.052;13.678;2022-09-28T08:06:09;13.17;;;6.93;;
3849;SDS011;1940;51.052;13.678;2022-09-28T08:08:37;12.20;;;6.70;;
3849;SDS011;1940;51.052;13.678;2022-09-28T08:11:05;14.33;;;7.57;;
3849;SDS011;1940;51.052;13.678;2022-09-28T08:13:32;16.23;;;7.80;;
3849;SDS011;1940;51.052;13.678;2022-09-28T08:16:00;14.10;;;7.17;;
3849;SDS011;1940;51.052;13.678;2022-09-28T08:18:27;18.47;;;7.60;;
3849;SDS011;1940;51.052;13.678;2022-09-28T08:20:53;12.60;;;7.53;;
3849;SDS011;1940;51.052;13.678;2022-09-28T08:23:37;10.43;;;7.00;;
3849;SDS011;1940;51.052;13.678;2022-09-28T08:26:02;12.70;;;7.33;;
3849;SDS011;1940;51.052;13.678;2022-09-28T08:28:29;11.13;;;7.13;;
3849;SDS011;1940;51.052;13.678;2022-09-28T08:30:57;12.00;;;7.13;;
3849;SDS011;1940;51.052;13.678;2022-09-28T08:33:23;10.50;;;6.80;;
3849;SDS011;1940;51.052;13.678;2022-09-28T08:35:56;8.53;;;4.70;;
3849;SDS011;1940;51.052;13.678;2022-09-28T08:38:23;5.43;;;3.20;;
3849;SDS011;1940;51.052;13.678;2022-09-28T08:40:56;5.47;;;3.83;;
3849;SDS011;1940;51.052;13.678;2022-09-28T08:46:22;6.73;;;3.53;;
3849;SDS011;1940;51.052;13.678;2022-09-28T08:48:51;5.83;;;3.47;;
3849;SDS011;1940;51.052;13.678;2022-09-28T08:51:24;7.23;;;2.90;;
3849;SDS011;1940;51.052;13.678;2022-09-28T08:53:56;4.50;;;3.27;;
3849;SDS011;1940;51.052;13.678;2022-09-28T08:58:55;2.27;;;1.80;;
3849;SDS011;1940;51.052;13.678;2022-09-28T09:01:25;2.20;;;2.00;;
3849;SDS011;1940;51.052;13.678;2022-09-28T09:03:56;3.90;;;2.00;;
3849;SDS011;1940;51.052;13.678;2022-09-28T09:09:10;2.50;;;1.80;;
3849;SDS011;1940;51.052;13.678;2022-09-28T09:12:03;3.33;;;1.50;;
3849;SDS011;1940;51.052;13.678;2022-09-28T09:14:58;2.23;;;1.63;;
3849;SDS011;1940;51.052;13.678;2022-09-28T09:20:17;2.10;;;1.70;;
3849;SDS011;1940;51.052;13.678;2022-09-28T09:22:59;4.00;;;1.77;;
3849;SDS011;1940;51.052;13.678;2022-09-28T09:25:41;2.67;;;2.03;;
3849;SDS011;1940;51.052;13.678;2022-09-28T09:28:32;2.60;;;1.87;;
3849;SDS011;1940;51.052;13.678;2022-09-28T09:31:24;2.77;;;2.20;;
3849;SDS011;1940;51.052;13.678;2022-09-28T09:44:58;3.80;;;2.80;;
3849;SDS011;1940;51.052;13.678;2022-09-28T09:47:34;2.90;;;2.20;;
3849;SDS011;1940;51.052;13.678;2022-09-28T09:50:19;2.70;;;2.13;;
3849;SDS011;1940;51.052;13.678;2022-09-28T09:52:50;3.67;;;2.50;;
3849;SDS011;1940;51.052;13.678;2022-09-28T09:55:43;3.93;;;2.10;;
3849;SDS011;1940;51.052;13.678;2022-09-28T09:58:18;2.10;;;1.80;;
3849;SDS011;1940;51.052;13.678;2022-09-28T10:00:49;2.33;;;1.87;;
3849;SDS011;1940;51.052;13.678;2022-09-28T10:03:25;8.87;;;2.13;;
3849;SDS011;1940;51.052;13.678;2022-09-28T10:05:55;3.03;;;2.07;;
3849;SDS011;1940;51.052;13.678;2022-09-28T10:08:27;2.47;;;2.07;;
3849;SDS011;1940;51.052;13.678;2022-09-28T10:11:06;4.63;;;2.20;;
3849;SDS011;1940;51.052;13.678;2022-09-28T10:13:36;3.97;;;2.00;;
3849;SDS011;1940;51.052;13.678;2022-09-28T10:16:03;5.73;;;2.27;;
3849;SDS011;1940;51.052;13.678;2022-09-28T10:18:29;3.03;;;2.23;;
3849;SDS011;1940;51.052;13.678;2022-09-28T10:20:55;4.90;;;2.63;;
3849;SDS011;1940;51.052;13.678;2022-09-28T10:23:24;2.53;;;1.90;;
3849;SDS011;1940;51.052;13.678;2022-09-28T10:25:54;2.20;;;1.80;;
3849;SDS011;1940;51.052;13.678;2022-09-28T10:28:28;2.30;;;1.87;;
3849;SDS011;1940;51.052;13.678;2022-09-28T10:32:05;3.13;;;1.90;;
3849;SDS011;1940;51.052;13.678;2022-09-28T10:34:02;3.00;;;2.20;;
3849;SDS011;1940;51.052;13.678;2022-09-28T10:36:29;3.60;;;2.03;;
3849;SDS011;1940;51.052;13.678;2022-09-28T10:39:02;4.00;;;2.33;;
3849;SDS011;1940;51.052;13.678;2022-09-28T10:41:29;4.40;;;2.63;;
3849;SDS011;1940;51.052;13.678;2022-09-28T10:43:56;4.83;;;3.10;;
3849;SDS011;1940;51.052;13.678;2022-09-28T10:46:31;3.33;;;2.53;;
3849;SDS011;1940;51.052;13.678;2022-09-28T10:49:02;4.90;;;2.70;;
3849;SDS011;1940;51.052;13.678;2022-09-28T10:51:44;4.40;;;2.40;;
3849;SDS011;1940;51.052;13.678;2022-09-28T10:54:16;4.10;;;2.70;;
3849;SDS011;1940;51.052;13.678;2022-09-28T10:56:46;3.80;;;2.60;;
3849;SDS011;1940;51.052;13.678;2022-09-28T10:59:22;4.83;;;3.10;;
3849;SDS011;1940;51.052;13.678;2022-09-28T11:04:39;10.20;;;3.60;;
3849;SDS011;1940;51.052;13.678;2022-09-28T11:07:14;6.30;;;3.00;;
3849;SDS011;1940;51.052;13.678;2022-09-28T11:09:48;3.80;;;2.40;;
3849;SDS011;1940;51.052;13.678;2022-09-28T11:12:17;3.50;;;2.30;;
3849;SDS011;1940;51.052;13.678;2022-09-28T11:14:48;4.83;;;2.67;;
3849;SDS011;1940;51.052;13.678;2022-09-28T11:17:25;6.50;;;3.03;;
3849;SDS011;1940;51.052;13.678;2022-09-28T11:20:00;4.47;;;3.00;;
3849;SDS011;1940;51.052;13.678;2022-09-28T11:22:58;5.33;;;3.33;;
3849;SDS011;1940;51.052;13.678;2022-09-28T11:25:38;4.00;;;2.50;;
3849;SDS011;1940;51.052;13.678;2022-09-28T11:28:04;5.73;;;2.97;;
3849;SDS011;1940;51.052;13.678;2022-09-28T11:30:43;4.67;;;3.17;;
3849;SDS011;1940;51.052;13.678;2022-09-28T11:33:15;4.60;;;3.33;;
3849;SDS011;1940;51.052;13.678;2022-09-28T11:39:19;5.80;;;3.40;;
3849;SDS011;1940;51.052;13.678;2022-09-28T11:41:48;4.53;;;3.13;;
3849;SDS011;1940;51.052;13.678;2022-09-28T11:44:33;4.57;;;2.97;;
3849;SDS011;1940;51.052;13.678;2022-09-28T11:50:11;8.50;;;2.70;;
3849;SDS011;1940;51.052;13.678;2022-09-28T11:52:45;2.33;;;1.80;;
3849;SDS011;1940;51.052;13.678;2022-09-28T11:55:18;6.70;;;1.30;;
3849;SDS011;1940;51.052;13.678;2022-09-28T11:58:30;1.33;;;1.20;;
3849;SDS011;1940;51.052;13.678;2022-09-28T12:01:01;1.30;;;1.17;;
3849;SDS011;1940;51.052;13.678;2022-09-28T12:03:37;2.00;;;1.40;;
3849;SDS011;1940;51.052;13.678;2022-09-28T12:06:08;1.80;;;1.33;;
3849;SDS011;1940;51.052;13.678;2022-09-28T12:08:41;1.97;;;1.30;;
3849;SDS011;1940;51.052;13.678;2022-09-28T12:11:29;1.40;;;1.20;;
3849;SDS011;1940;51.052;13.678;2022-09-28T12:14:00;2.27;;;1.30;;
3849;SDS011;1940;51.052;13.678;2022-09-28T12:16:30;2.10;;;1.50;;
3849;SDS011;1940;51.052;13.678;2022-09-28T12:19:20;2.77;;;1.37;;
3849;SDS011;1940;51.052;13.678;2022-09-28T12:21:53;2.33;;;1.57;;
3849;SDS011;1940;51.052;13.678;2022-09-28T12:24:25;1.93;;;1.50;;
3849;SDS011;1940;51.052;13.678;2022-09-28T12:26:59;1.73;;;1.53;;
3849;SDS011;1940;51.052;13.678;2022-09-28T12:29:32;3.30;;;2.03;;
3849;SDS011;1940;51.052;13.678;2022-09-28T12:32:11;4.10;;;2.40;;
3849;SDS011;1940;51.052;13.678;2022-09-28T12:35:01;2.13;;;1.93;;
3849;SDS011;1940;51.052;13.678;2022-09-28T12:45:40;2.33;;;2.10;;
3849;SDS011;1940;51.052;13.678;2022-09-28T12:48:27;3.93;;;2.00;;
3849;SDS011;1940;51.052;13.678;2022-09-28T12:56:51;1.80;;;1.50;;
3849;SDS011;1940;51.052;13.678;2022-09-28T12:59:30;1.67;;;1.20;;
3849;SDS011;1940;51.052;13.678;2022-09-28T13:05:16;1.50;;;1.17;;
3849;SDS011;1940;51.052;13.678;2022-09-28T13:10:32;2.80;;;1.40;;
3849;SDS011;1940;51.052;13.678;2022-09-28T13:13:23;1.77;;;1.40;;
3849;SDS011;1940;51.052;13.678;2022-09-28T13:16:04;1.13;;;1.00;;
3849;SDS011;1940;51.052;13.678;2022-09-28T13:19:00;1.50;;;1.00;;
3849;SDS011;1940;51.052;13.678;2022-09-28T13:24:37;1.27;;;0.90;;
3849;SDS011;1940;51.052;13.678;2022-09-28T13:27:09;1.53;;;0.80;;
3849;SDS011;1940;51.052;13.678;2022-09-28T13:29:40;1.27;;;0.80;;
3849;SDS011;1940;51.052;13.678;2022-09-28T13:32:07;1.00;;;0.90;;
3849;SDS011;1940;51.052;13.678;2022-09-28T13:34:36;1.00;;;0.90;;
3849;SDS011;1940;51.052;13.678;2022-09-28T13:37:17;1.10;;;0.80;;
3849;SDS011;1940;51.052;13.678;2022-09-28T13:47:48;1.23;;;1.00;;
3849;SDS011;1940;51.052;13.678;2022-09-28T13:50:25;1.23;;;1.00;;
3849;SDS011;1940;51.052;13.678;2022-09-28T13:53:16;1.63;;;1.33;;
3849;SDS011;1940;51.052;13.678;2022-09-28T13:56:18;2.00;;;1.30;;
3849;SDS011;1940;51.052;13.678;2022-09-28T14:04:55;2.27;;;1.60;;
3849;SDS011;1940;51.052;13.678;2022-09-28T14:12:43;1.63;;;1.30;;
3849;SDS011;1940;51.052;13.678;2022-09-28T14:15:36;1.13;;;1.03;;
3849;SDS011;1940;51.052;13.678;2022-09-28T14:20:55;3.77;;;1.47;;
3849;SDS011;1940;51.052;13.678;2022-09-28T14:23:45;2.50;;;1.40;;
3849;SDS011;1940;51.052;13.678;2022-09-28T14:26:31;2.27;;;1.40;;
3849;SDS011;1940;51.052;13.678;2022-09-28T14:29:27;2.23;;;1.50;;
3849;SDS011;1940;51.052;13.678;2022-09-28T14:32:02;2.20;;;1.60;;
3849;SDS011;1940;51.052;13.678;2022-09-28T14:34:45;2.33;;;1.67;;
3849;SDS011;1940;51.052;13.678;2022-09-28T14:37:32;2.50;;;1.83;;
3849;SDS011;1940;51.052;13.678;2022-09-28T14:40:20;2.03;;;1.63;;
3849;SDS011;1940;51.052;13.678;2022-09-28T14:46:24;1.77;;;1.40;;
3849;SDS011;1940;51.052;13.678;2022-09-28T14:48:56;1.83;;;1.30;;
3849;SDS011;1940;51.052;13.678;2022-09-28T14:56:28;1.93;;;1.40;;
3849;SDS011;1940;51.052;13.678;2022-09-28T14:58:57;1.77;;;1.30;;
3849;SDS011;1940;51.052;13.678;2022-09-28T15:01:24;4.03;;;1.10;;
3849;SDS011;1940;51.052;13.678;2022-09-28T15:03:51;1.53;;;1.40;;
3849;SDS011;1940;51.052;13.678;2022-09-28T15:06:23;1.30;;;1.00;;
3849;SDS011;1940;51.052;13.678;2022-09-28T15:08:49;1.60;;;1.37;;
3849;SDS011;1940;51.052;13.678;2022-09-28T15:11:21;1.30;;;1.10;;
3849;SDS011;1940;51.052;13.678;2022-09-28T15:13:49;1.57;;;1.27;;
3849;SDS011;1940;51.052;13.678;2022-09-28T15:16:28;1.90;;;1.57;;
3849;SDS011;1940;51.052;13.678;2022-09-28T15:18:58;1.70;;;1.27;;
3849;SDS011;1940;51.052;13.678;2022-09-28T15:21:41;1.67;;;1.53;;
3849;SDS011;1940;51.052;13.678;2022-09-28T15:26:48;1.63;;;1.43;;
3849;SDS011;1940;51.052;13.678;2022-09-28T15:29:17;1.20;;;1.10;;
3849;SDS011;1940;51.052;13.678;2022-09-28T15:31:44;2.30;;;1.50;;
3849;SDS011;1940;51.052;13.678;2022-09-28T15:37:14;2.50;;;1.70;;
3849;SDS011;1940;51.052;13.678;2022-09-28T15:40:03;3.07;;;2.03;;
3849;SDS011;1940;51.052;13.678;2022-09-28T15:42:37;3.90;;;2.30;;
3849;SDS011;1940;51.052;13.678;2022-09-28T15:45:04;3.00;;;1.97;;
3849;SDS011;1940;51.052;13.678;2022-09-28T15:47:48;3.67;;;2.10;;
3849;SDS011;1940;51.052;13.678;2022-09-28T15:50:20;3.50;;;2.20;;
3849;SDS011;1940;51.052;13.678;2022-09-28T15:53:01;2.40;;;2.03;;
3849;SDS011;1940;51.052;13.678;2022-09-28T15:55:36;2.03;;;1.80;;
3849;SDS011;1940;51.052;13.678;2022-09-28T15:58:12;2.80;;;2.00;;
3849;SDS011;1940;51.052;13.678;2022-09-28T16:00:46;2.50;;;2.13;;
3849;SDS011;1940;51.052;13.678;2022-09-28T16:03:21;5.80;;;2.00;;
3849;SDS011;1940;51.052;13.678;2022-09-28T16:11:18;2.43;;;2.00;;
3849;SDS011;1940;51.052;13.678;2022-09-28T16:16:28;2.60;;;1.90;;
3849;SDS011;1940;51.052;13.678;2022-09-28T16:18:57;2.40;;;2.00;;
3849;SDS011;1940;51.052;13.678;2022-09-28T16:26:58;15.47;;;9.17;;
3849;SDS011;1940;51.052;13.678;2022-09-28T16:37:36;3.30;;;2.70;;
3849;SDS011;1940;51.052;13.678;2022-09-28T16:40:04;4.10;;;2.90;;
3849;SDS011;1940;51.052;13.678;2022-09-28T16:42:30;3.80;;;2.30;;
3849;SDS011;1940;51.052;13.678;2022-09-28T16:44:56;3.87;;;2.73;;
3849;SDS011;1940;51.052;13.678;2022-09-28T16:47:22;3.23;;;2.57;;
3849;SDS011;1940;51.052;13.678;2022-09-28T16:49:47;3.37;;;2.63;;
3849;SDS011;1940;51.052;13.678;2022-09-28T16:52:13;6.23;;;2.97;;
3849;SDS011;1940;51.052;13.678;2022-09-28T16:54:59;5.17;;;2.40;;
3849;SDS011;1940;51.052;13.678;2022-09-28T16:57:39;4.20;;;2.90;;
3849;SDS011;1940;51.052;13.678;2022-09-28T17:00:08;5.10;;;3.00;;
3849;SDS011;1940;51.052;13.678;2022-09-28T17:02:40;5.90;;;3.20;;
3849;SDS011;1940;51.052;13.678;2022-09-28T17:05:05;3.47;;;2.70;;
3849;SDS011;1940;51.052;13.678;2022-09-28T17:07:31;4.73;;;2.90;;
3849;SDS011;1940;51.052;13.678;2022-09-28T17:09:57;3.70;;;2.90;;
3849;SDS011;1940;51.052;13.678;2022-09-28T17:12:23;4.33;;;3.17;;
3849;SDS011;1940;51.052;13.678;2022-09-28T17:14:52;5.03;;;3.17;;
3849;SDS011;1940;51.052;13.678;2022-09-28T17:17:17;5.43;;;3.50;;
3849;SDS011;1940;51.052;13.678;2022-09-28T17:19:43;7.07;;;4.43;;
3849;SDS011;1940;51.052;13.678;2022-09-28T17:22:08;4.97;;;3.10;;
3849;SDS011;1940;51.052;13.678;2022-09-28T17:24:34;6.37;;;3.70;;
3849;SDS011;1940;51.052;13.678;2022-09-28T17:27:00;4.97;;;3.40;;
3849;SDS011;1940;51.052;13.678;2022-09-28T17:29:27;5.40;;;3.47;;
3849;SDS011;1940;51.052;13.678;2022-09-28T17:31:53;4.77;;;3.30;;
3849;SDS011;1940;51.052;13.678;2022-09-28T17:34:19;5.83;;;4.10;;
3849;SDS011;1940;51.052;13.678;2022-09-28T17:36:45;6.77;;;4.50;;
3849;SDS011;1940;51.052;13.678;2022-09-28T17:39:11;7.10;;;4.20;;
3849;SDS011;1940;51.052;13.678;2022-09-28T17:41:38;8.00;;;4.37;;
3849;SDS011;1940;51.052;13.678;2022-09-28T17:44:04;5.90;;;3.67;;
3849;SDS011;1940;51.052;13.678;2022-09-28T17:46:37;6.00;;;4.30;;
3849;SDS011;1940;51.052;13.678;2022-09-28T17:49:05;5.97;;;4.20;;
3849;SDS011;1940;51.052;13.678;2022-09-28T17:51:34;9.40;;;4.00;;